createdAt,value
2018-07-06T00:00:18.355Z,9.60
2018-07-06T00:02:58.818Z,10.67
2018-07-06T00:05:39.219Z,12.30
2018-07-06T00:08:19.669Z,12.20
2018-07-06T00:10:59.773Z,11.60
2018-07-06T00:13:40.424Z,16.70
2018-07-06T00:16:20.400Z,16.70
2018-07-06T00:19:00.549Z,10.47
2018-07-06T00:21:40.786Z,14.17
2018-07-06T00:24:20.791Z,10.47
2018-07-06T00:27:00.772Z,15.30
2018-07-06T00:29:41.069Z,10.77
2018-07-06T00:32:21.296Z,13.20
2018-07-06T00:35:01.595Z,11.17
2018-07-06T00:37:36.041Z,8.80
2018-07-06T00:40:17.090Z,16.23
2018-07-06T00:42:57.424Z,13.10
2018-07-06T00:45:37.312Z,9.40
2018-07-06T00:48:17.644Z,10.07
2018-07-06T00:50:57.872Z,8.30
2018-07-06T00:53:38.203Z,12.10
2018-07-06T00:56:18.635Z,11.80
2018-07-06T00:58:58.632Z,11.10
2018-07-06T01:01:38.531Z,9.77
2018-07-06T01:04:12.592Z,19.10
2018-07-06T01:06:52.557Z,12.80
2018-07-06T01:09:32.746Z,12.40
2018-07-06T01:12:17.889Z,12.63
2018-07-06T01:14:57.942Z,10.40
2018-07-06T01:17:38.190Z,12.00
2018-07-06T01:20:18.569Z,11.30
2018-07-06T01:22:58.509Z,10.83
2018-07-06T01:25:38.524Z,12.63
2018-07-06T01:28:19.238Z,14.13
2018-07-06T01:30:59.338Z,13.10
2018-07-06T01:33:39.474Z,11.60
2018-07-06T01:36:19.450Z,12.97
2018-07-06T01:38:59.497Z,12.47
2018-07-06T01:41:39.707Z,15.07
2018-07-06T01:44:20.244Z,16.10
2018-07-06T01:47:00.505Z,21.60
2018-07-06T01:49:34.583Z,15.03
2018-07-06T01:52:14.818Z,17.00
2018-07-06T01:54:54.878Z,18.60
2018-07-06T01:57:34.849Z,15.97
2018-07-06T02:00:15.081Z,20.23
2018-07-06T02:02:55.180Z,23.43
2018-07-06T02:05:35.229Z,17.77
2018-07-06T02:08:15.264Z,21.43
2018-07-06T02:10:55.518Z,18.10
2018-07-06T02:13:35.735Z,17.37
2018-07-06T02:16:15.897Z,18.57
2018-07-06T02:18:56.016Z,17.97
2018-07-06T02:21:36.092Z,20.70
2018-07-06T02:24:16.444Z,20.00
2018-07-06T02:26:56.686Z,22.20
2018-07-06T02:29:36.871Z,26.00
2018-07-06T02:32:16.945Z,26.17
2018-07-06T02:34:56.788Z,24.10
2018-07-06T02:37:36.748Z,23.93
2018-07-06T02:40:17.553Z,25.13
2018-07-06T02:42:57.841Z,36.10
2018-07-06T02:45:37.672Z,25.43
2018-07-06T02:48:17.798Z,28.40
2018-07-06T02:50:57.960Z,25.63
2018-07-06T02:53:38.038Z,30.93
2018-07-06T02:56:18.203Z,27.20
2018-07-06T02:58:58.971Z,32.70
2018-07-06T03:01:39.345Z,30.77
2018-07-06T03:04:19.939Z,33.83
2018-07-06T03:07:00.280Z,32.67
2018-07-06T03:09:40.968Z,35.30
2018-07-06T03:12:21.074Z,35.20
2018-07-06T03:15:01.949Z,28.50
2018-07-06T03:17:41.841Z,31.60
2018-07-06T03:20:22.223Z,33.73
2018-07-06T03:23:02.342Z,29.13
2018-07-06T03:25:42.610Z,32.33
2018-07-06T03:28:22.459Z,27.57
2018-07-06T03:31:03.224Z,46.20
2018-07-06T03:33:43.255Z,34.80
2018-07-06T03:36:23.609Z,27.80
2018-07-06T03:39:03.948Z,26.83
2018-07-06T03:41:43.818Z,28.43
2018-07-06T03:44:24.531Z,25.33
2018-07-06T03:47:04.334Z,26.07
2018-07-06T03:49:44.787Z,28.33
2018-07-06T03:52:25.362Z,23.27
2018-07-06T03:55:05.531Z,26.60
2018-07-06T03:57:45.611Z,26.33
2018-07-06T04:00:26.012Z,23.00
2018-07-06T04:03:06.072Z,24.40
2018-07-06T04:05:45.880Z,25.50
2018-07-06T04:08:25.943Z,26.90
2018-07-06T04:11:06.179Z,27.53
2018-07-06T04:13:46.249Z,24.77
2018-07-06T04:16:27.067Z,26.50
2018-07-06T04:19:09.455Z,29.93
2018-07-06T04:21:49.525Z,30.50
2018-07-06T04:24:30.128Z,38.90
2018-07-06T04:27:10.844Z,30.10
2018-07-06T04:29:51.126Z,30.27
2018-07-06T04:32:31.953Z,31.93
2018-07-06T04:35:12.709Z,38.43
2018-07-06T04:37:52.819Z,30.50
2018-07-06T04:40:32.839Z,34.03
2018-07-06T04:43:12.819Z,33.37
2018-07-06T04:45:52.716Z,28.40
2018-07-06T04:48:33.506Z,29.30
2018-07-06T04:51:13.958Z,26.97
2018-07-06T04:53:53.744Z,26.90
2018-07-06T04:56:34.067Z,34.43
2018-07-06T04:59:14.094Z,29.27
2018-07-06T05:01:56.097Z,27.60
2018-07-06T05:04:36.557Z,30.43
2018-07-06T05:07:16.877Z,32.47
2018-07-06T05:09:57.391Z,28.30
2018-07-06T05:12:37.482Z,32.60
2018-07-06T05:15:17.424Z,32.27
2018-07-06T05:17:57.610Z,30.47
2018-07-06T05:20:37.791Z,34.23
2018-07-06T05:23:17.814Z,37.30
2018-07-06T05:25:57.853Z,33.07
2018-07-06T05:28:37.876Z,31.27
2018-07-06T05:31:17.945Z,30.33
2018-07-06T05:33:58.038Z,36.03
2018-07-06T05:36:38.029Z,38.13
2018-07-06T05:39:18.284Z,37.30
2018-07-06T05:41:58.297Z,34.27
2018-07-06T05:44:38.375Z,30.50
2018-07-06T05:47:18.958Z,27.53
2018-07-06T05:49:59.302Z,32.57
2018-07-06T05:52:39.482Z,24.93
2018-07-06T05:55:19.847Z,21.73
2018-07-06T05:57:59.822Z,32.47
2018-07-06T06:00:39.894Z,26.83
2018-07-06T06:03:14.087Z,32.30
2018-07-06T06:05:54.356Z,26.30
2018-07-06T06:08:22.125Z,25.93
2018-07-06T06:10:51.385Z,26.10
2018-07-06T06:13:20.704Z,22.80
2018-07-06T06:15:49.571Z,29.00
2018-07-06T06:18:19.717Z,30.17
2018-07-06T06:20:49.288Z,25.20
2018-07-06T06:23:18.321Z,23.03
2018-07-06T06:25:47.687Z,18.87
2018-07-06T06:28:16.996Z,26.10
2018-07-06T06:30:47.884Z,26.13
2018-07-06T06:33:18.172Z,20.03
2018-07-06T06:35:47.871Z,25.37
2018-07-06T06:38:17.852Z,20.83
2018-07-06T06:40:46.696Z,20.57
2018-07-06T06:43:16.392Z,23.50
2018-07-06T06:45:45.659Z,24.87
2018-07-06T06:48:15.815Z,21.03
2018-07-06T06:50:45.287Z,22.27
2018-07-06T06:53:15.550Z,28.23
2018-07-06T06:55:45.566Z,21.77
2018-07-06T06:58:15.316Z,20.00
2018-07-06T07:00:45.246Z,18.37
2018-07-06T07:03:15.083Z,20.90
2018-07-06T07:05:44.840Z,17.73
2018-07-06T07:08:14.869Z,20.30
2018-07-06T07:10:44.110Z,21.53
2018-07-06T07:13:13.557Z,21.13
2018-07-06T07:15:43.208Z,18.47
2018-07-06T07:18:12.600Z,18.37
2018-07-06T07:20:42.551Z,17.73
2018-07-06T07:23:12.399Z,15.87
2018-07-06T07:25:41.877Z,21.83
2018-07-06T07:28:11.839Z,19.83
2018-07-06T07:30:41.285Z,21.80
2018-07-06T07:33:11.196Z,18.03
2018-07-06T07:35:41.819Z,14.93
2018-07-06T07:38:12.186Z,16.13
2018-07-06T07:40:41.855Z,16.27
2018-07-06T07:43:11.568Z,20.30
2018-07-06T07:45:41.337Z,14.27
2018-07-06T07:48:10.729Z,12.90
2018-07-06T07:50:50.013Z,14.90
2018-07-06T07:53:24.615Z,21.37
2018-07-06T07:55:53.832Z,22.67
2018-07-06T07:58:23.385Z,21.43
2018-07-06T08:00:53.184Z,23.53
2018-07-06T08:03:22.304Z,18.17
2018-07-06T08:05:51.813Z,16.83
2018-07-06T08:08:21.056Z,14.90
2018-07-06T08:10:50.236Z,20.77
2018-07-06T08:13:20.268Z,18.47
2018-07-06T08:15:50.989Z,17.27
2018-07-06T08:18:20.803Z,14.40
2018-07-06T08:20:50.276Z,17.47
2018-07-06T08:23:19.608Z,16.27
2018-07-06T08:25:48.721Z,18.30
2018-07-06T08:28:18.383Z,16.60
2018-07-06T08:30:47.446Z,14.50
2018-07-06T08:33:17.086Z,15.23
2018-07-06T08:35:56.992Z,14.00
2018-07-06T08:38:26.043Z,14.63
2018-07-06T08:40:55.249Z,13.60
2018-07-06T08:43:24.732Z,19.80
2018-07-06T08:45:55.112Z,13.80
2018-07-06T08:48:24.093Z,23.10
2018-07-06T08:50:53.355Z,17.33
2018-07-06T08:53:22.525Z,17.20
2018-07-06T08:55:51.885Z,17.53
2018-07-06T08:58:21.028Z,17.17
2018-07-06T09:00:50.040Z,17.03
2018-07-06T09:03:19.237Z,15.80
2018-07-06T09:05:48.664Z,17.97
2018-07-06T09:08:17.926Z,16.53
2018-07-06T09:10:46.971Z,17.37
2018-07-06T09:13:15.804Z,13.10
2018-07-06T09:15:44.846Z,13.93
2018-07-06T09:18:13.944Z,16.03
2018-07-06T09:20:43.537Z,18.30
2018-07-06T09:23:12.966Z,12.63
2018-07-06T09:25:43.262Z,14.77
2018-07-06T09:28:11.994Z,15.20
2018-07-06T09:30:40.976Z,16.03
2018-07-06T09:33:10.216Z,16.83
2018-07-06T09:35:39.946Z,19.30
2018-07-06T09:38:09.707Z,21.20
2018-07-06T09:40:39.198Z,16.00
2018-07-06T09:43:08.757Z,24.87
2018-07-06T09:45:38.119Z,15.27
2018-07-06T09:48:07.187Z,14.47
2018-07-06T09:50:36.256Z,14.97
2018-07-06T09:53:05.083Z,14.70
2018-07-06T09:55:34.262Z,17.47
2018-07-06T09:58:03.728Z,22.60
2018-07-06T10:00:37.733Z,16.93
2018-07-06T10:03:07.824Z,19.80
2018-07-06T10:05:36.931Z,22.10
2018-07-06T10:08:06.413Z,16.73
2018-07-06T10:10:35.620Z,11.27
2018-07-06T10:13:05.549Z,18.20
2018-07-06T10:15:35.610Z,12.80
2018-07-06T10:18:04.917Z,13.43
2018-07-06T10:20:34.457Z,23.63
2018-07-06T10:23:03.622Z,16.50
2018-07-06T10:25:33.838Z,17.47
2018-07-06T10:28:17.573Z,17.43
2018-07-06T10:32:00.790Z,13.03
2018-07-06T10:34:29.831Z,11.60
2018-07-06T10:37:01.659Z,14.03
2018-07-06T10:39:31.826Z,11.20
2018-07-06T10:42:01.199Z,13.03
2018-07-06T10:44:30.748Z,20.00
2018-07-06T10:47:00.642Z,19.80
2018-07-06T10:49:30.042Z,17.63
2018-07-06T10:51:59.569Z,10.67
2018-07-06T10:54:28.926Z,13.00
2018-07-06T10:56:58.432Z,12.20
2018-07-06T10:59:28.256Z,10.97
2018-07-06T11:01:57.564Z,13.60
2018-07-06T11:04:26.943Z,16.43
2018-07-06T11:06:56.450Z,9.57
2018-07-06T11:09:26.440Z,10.53
2018-07-06T11:11:56.795Z,11.80
2018-07-06T11:14:25.864Z,9.10
2018-07-06T11:16:55.134Z,11.13
2018-07-06T11:19:24.339Z,9.50
2018-07-06T11:21:53.883Z,9.97
2018-07-06T11:24:23.058Z,8.50
2018-07-06T11:26:52.356Z,9.70
2018-07-06T11:29:21.851Z,8.13
2018-07-06T11:31:57.529Z,11.10
2018-07-06T11:34:26.475Z,6.50
2018-07-06T11:36:55.495Z,10.77
2018-07-06T11:39:24.906Z,8.93
2018-07-06T11:41:54.363Z,7.40
2018-07-06T11:44:23.344Z,8.90
2018-07-06T11:46:52.200Z,10.23
2018-07-06T11:49:21.985Z,7.10
2018-07-06T11:51:51.724Z,5.33
2018-07-06T11:54:21.211Z,6.40
2018-07-06T11:56:51.360Z,7.60
2018-07-06T11:59:20.451Z,8.33
2018-07-06T12:01:49.984Z,11.40
2018-07-06T12:04:19.304Z,6.30
2018-07-06T12:06:47.940Z,6.00
2018-07-06T12:09:17.425Z,5.83
2018-07-06T12:11:53.053Z,8.23
2018-07-06T12:14:22.195Z,12.10
2018-07-06T12:16:52.144Z,6.60
2018-07-06T12:19:21.642Z,9.27
2018-07-06T12:21:51.031Z,9.97
2018-07-06T12:24:20.606Z,5.80
2018-07-06T12:26:49.613Z,6.53
2018-07-06T12:29:19.203Z,10.73
2018-07-06T12:31:48.905Z,6.80
2018-07-06T12:34:18.134Z,5.43
2018-07-06T12:36:47.962Z,6.80
2018-07-06T12:39:17.375Z,4.67
2018-07-06T12:41:46.605Z,5.23
2018-07-06T12:44:15.349Z,5.90
2018-07-06T12:46:44.828Z,7.37
2018-07-06T12:49:14.263Z,8.27
2018-07-06T12:51:43.413Z,12.13
2018-07-06T12:54:12.986Z,5.90
2018-07-06T12:56:42.077Z,9.00
2018-07-06T12:59:11.204Z,5.53
2018-07-06T13:01:40.077Z,6.20
2018-07-06T13:04:09.237Z,6.43
2018-07-06T13:06:38.977Z,7.33
2018-07-06T13:09:08.278Z,10.60
2018-07-06T13:11:38.183Z,7.83
2018-07-06T13:14:07.161Z,16.03
2018-07-06T13:16:36.425Z,7.50
2018-07-06T13:19:06.005Z,6.50
2018-07-06T13:21:35.083Z,7.73
2018-07-06T13:24:04.564Z,6.30
2018-07-06T13:26:34.438Z,12.43
2018-07-06T13:29:04.260Z,6.73
2018-07-06T13:31:33.308Z,7.83
2018-07-06T13:34:02.570Z,6.00
2018-07-06T13:36:32.097Z,7.30
2018-07-06T13:39:01.523Z,11.07
2018-07-06T13:41:31.107Z,6.23
2018-07-06T13:44:00.336Z,5.77
2018-07-06T13:46:29.362Z,10.13
2018-07-06T13:48:58.754Z,5.10
2018-07-06T13:51:27.465Z,6.80
2018-07-06T13:53:56.482Z,6.53
2018-07-06T13:56:25.364Z,7.50
2018-07-06T13:58:55.401Z,7.53
2018-07-06T14:01:24.589Z,6.10
2018-07-06T14:03:54.774Z,7.07
2018-07-06T14:06:24.031Z,8.47
2018-07-06T14:08:53.560Z,8.97
2018-07-06T14:11:23.297Z,6.87
2018-07-06T14:13:52.525Z,5.83
2018-07-06T14:16:21.800Z,10.03
2018-07-06T14:18:51.556Z,5.20
2018-07-06T14:21:20.992Z,6.97
2018-07-06T14:23:50.264Z,4.63
2018-07-06T14:26:19.465Z,7.47
2018-07-06T14:28:48.827Z,6.83
2018-07-06T14:31:17.966Z,5.90
2018-07-06T14:33:47.129Z,5.30
2018-07-06T14:36:16.773Z,6.20
2018-07-06T14:38:46.009Z,5.77
2018-07-06T14:41:15.370Z,4.67
2018-07-06T14:43:44.646Z,5.80
2018-07-06T14:46:13.645Z,6.50
2018-07-06T14:48:43.130Z,5.70
2018-07-06T14:51:12.215Z,9.57
2018-07-06T14:53:42.531Z,5.07
2018-07-06T14:56:12.062Z,8.57
2018-07-06T14:58:41.589Z,9.00
2018-07-06T15:01:10.785Z,7.67
2018-07-06T15:03:40.082Z,5.07
2018-07-06T15:06:09.369Z,8.00
2018-07-06T15:08:40.035Z,5.97
2018-07-06T15:11:11.415Z,10.40
2018-07-06T15:13:41.056Z,6.53
2018-07-06T15:16:10.312Z,6.73
2018-07-06T15:18:39.766Z,7.80
2018-07-06T15:21:09.412Z,7.20
2018-07-06T15:23:38.819Z,5.17
2018-07-06T15:26:07.966Z,6.50
2018-07-06T15:28:37.261Z,5.97
2018-07-06T15:31:06.230Z,8.77
2018-07-06T15:33:35.915Z,4.70
2018-07-06T15:36:05.397Z,5.70
2018-07-06T15:38:35.761Z,5.30
2018-07-06T15:41:05.092Z,5.20
2018-07-06T15:43:34.394Z,7.30
2018-07-06T15:46:03.203Z,6.67
2018-07-06T15:48:32.908Z,5.40
2018-07-06T15:51:02.426Z,5.73
2018-07-06T15:53:31.867Z,11.80
2018-07-06T15:56:01.461Z,8.50
2018-07-06T15:58:30.649Z,8.80
2018-07-06T16:01:00.282Z,13.10
2018-07-06T16:03:30.723Z,7.50
2018-07-06T16:06:00.130Z,8.60
2018-07-06T16:08:29.748Z,6.23
2018-07-06T16:10:59.880Z,6.67
2018-07-06T16:13:29.147Z,13.83
2018-07-06T16:15:59.226Z,6.40
2018-07-06T16:18:28.790Z,6.17
2018-07-06T16:20:58.659Z,13.27
2018-07-06T16:23:27.575Z,7.10
2018-07-06T16:25:56.921Z,5.43
2018-07-06T16:28:26.282Z,9.80
2018-07-06T16:30:55.864Z,24.93
2018-07-06T16:33:27.530Z,84.93
2018-07-06T16:35:57.296Z,11.20
2018-07-06T16:38:26.974Z,49.83
2018-07-06T16:40:55.977Z,9.70
2018-07-06T16:43:25.297Z,5.30
2018-07-06T16:45:54.215Z,5.97
2018-07-06T16:48:23.639Z,8.10
2018-07-06T16:50:53.034Z,12.20
2018-07-06T16:53:22.181Z,9.97
2018-07-06T16:55:51.031Z,7.93
2018-07-06T16:58:20.555Z,10.33
2018-07-06T17:00:49.792Z,7.33
2018-07-06T17:03:19.587Z,6.60
2018-07-06T17:05:48.761Z,6.53
2018-07-06T17:08:18.483Z,11.80
2018-07-06T17:10:47.963Z,6.63
2018-07-06T17:13:16.878Z,6.47
2018-07-06T17:15:45.995Z,3.50
2018-07-06T17:18:15.572Z,5.20
2018-07-06T17:20:45.204Z,1.90
2018-07-06T17:23:14.559Z,2.37
2018-07-06T17:25:43.578Z,3.13
2018-07-06T17:28:13.003Z,3.57
2018-07-06T17:30:42.994Z,2.90
2018-07-06T17:33:12.447Z,3.87
2018-07-06T17:35:41.474Z,2.33
2018-07-06T17:38:10.502Z,1.87
2018-07-06T17:40:40.141Z,16.67
2018-07-06T17:43:09.174Z,3.33
2018-07-06T17:45:38.258Z,3.60
2018-07-06T17:48:07.211Z,14.93
2018-07-06T17:50:36.691Z,4.13
2018-07-06T17:53:06.130Z,3.33
2018-07-06T17:55:35.434Z,5.67
2018-07-06T17:58:05.350Z,4.20
2018-07-06T18:00:34.616Z,3.83
2018-07-06T18:03:04.676Z,6.83
2018-07-06T18:05:34.087Z,2.20
2018-07-06T18:08:03.517Z,5.40
2018-07-06T18:10:33.164Z,2.93
2018-07-06T18:13:02.807Z,4.70
2018-07-06T18:15:32.017Z,6.17
2018-07-06T18:18:01.586Z,4.37
2018-07-06T18:20:31.580Z,3.40
2018-07-06T18:23:01.600Z,7.80
2018-07-06T18:25:30.992Z,3.90
2018-07-06T18:28:00.702Z,4.90
2018-07-06T18:30:30.628Z,2.73
2018-07-06T18:33:00.759Z,3.50
2018-07-06T18:35:30.568Z,2.57
2018-07-06T18:37:59.752Z,3.30
2018-07-06T18:40:28.844Z,3.13
2018-07-06T18:42:58.178Z,4.80
2018-07-06T18:45:27.331Z,7.33
2018-07-06T18:47:56.492Z,4.20
2018-07-06T18:50:25.799Z,2.27
2018-07-06T18:52:55.335Z,6.13
2018-07-06T18:55:25.061Z,12.77
2018-07-06T18:57:54.346Z,4.07
2018-07-06T19:00:23.486Z,6.20
2018-07-06T19:02:53.031Z,4.40
2018-07-06T19:05:22.811Z,3.87
2018-07-06T19:07:52.646Z,4.17
2018-07-06T19:10:22.168Z,9.63
2018-07-06T19:12:52.125Z,5.93
2018-07-06T19:15:20.708Z,9.57
2018-07-06T19:17:50.114Z,3.10
2018-07-06T19:20:19.255Z,3.03
2018-07-06T19:22:48.174Z,2.90
2018-07-06T19:25:16.900Z,6.77
2018-07-06T19:27:46.020Z,6.83
2018-07-06T19:30:15.272Z,3.63
2018-07-06T19:32:44.432Z,7.80
2018-07-06T19:35:13.688Z,3.30
2018-07-06T19:37:42.812Z,5.67
2018-07-06T19:40:12.143Z,5.80
2018-07-06T19:42:41.210Z,6.53
2018-07-06T19:45:10.716Z,6.23
2018-07-06T19:47:39.642Z,15.07
2018-07-06T19:50:08.750Z,3.30
2018-07-06T19:52:38.697Z,13.20
2018-07-06T19:55:07.786Z,8.10
2018-07-06T19:57:37.184Z,3.80
2018-07-06T20:00:06.789Z,5.93
2018-07-06T20:02:35.190Z,11.73
2018-07-06T20:05:04.425Z,9.03
2018-07-06T20:07:33.514Z,14.93
2018-07-06T20:10:02.471Z,8.40
2018-07-06T20:12:31.866Z,6.10
2018-07-06T20:15:00.986Z,9.37
2018-07-06T20:17:30.144Z,5.30
2018-07-06T20:19:59.299Z,6.77
2018-07-06T20:22:28.695Z,14.53
2018-07-06T20:24:58.113Z,8.27
2018-07-06T20:27:27.243Z,9.17
2018-07-06T20:29:56.724Z,10.60
2018-07-06T20:32:25.893Z,9.90
2018-07-06T20:34:55.245Z,5.37
2018-07-06T20:37:24.444Z,19.17
2018-07-06T20:39:53.447Z,10.67
2018-07-06T20:42:22.915Z,14.17
2018-07-06T20:44:52.452Z,14.83
2018-07-06T20:47:21.352Z,8.97
2018-07-06T20:49:50.549Z,29.53
2018-07-06T20:52:19.501Z,16.73
2018-07-06T20:54:48.636Z,8.13
2018-07-06T20:57:17.790Z,14.47
2018-07-06T20:59:47.254Z,10.87
2018-07-06T21:02:16.471Z,5.23
2018-07-06T21:04:45.564Z,7.20
2018-07-06T21:07:14.658Z,10.57
2018-07-06T21:09:46.457Z,13.43
2018-07-06T21:12:15.678Z,6.77
2018-07-06T21:14:45.859Z,13.60
2018-07-06T21:17:15.693Z,19.90
2018-07-06T21:19:44.908Z,21.53
2018-07-06T21:22:14.218Z,6.13
2018-07-06T21:24:43.272Z,11.17
2018-07-06T21:27:12.950Z,7.70
2018-07-06T21:29:41.551Z,6.20
2018-07-06T21:32:10.592Z,5.77
2018-07-06T21:34:39.551Z,6.70
2018-07-06T21:37:08.902Z,9.50
2018-07-06T21:39:38.062Z,6.37
2018-07-06T21:42:07.267Z,7.50
2018-07-06T21:44:36.796Z,6.43
2018-07-06T21:47:05.737Z,6.47
2018-07-06T21:49:35.325Z,5.30
2018-07-06T21:52:03.900Z,6.40
2018-07-06T21:54:33.233Z,5.40
2018-07-06T21:57:02.564Z,7.53
2018-07-06T21:59:31.700Z,9.33
2018-07-06T22:02:01.932Z,7.40
2018-07-06T22:04:30.983Z,11.50
2018-07-06T22:06:59.976Z,5.33
2018-07-06T22:09:28.968Z,5.20
2018-07-06T22:11:58.039Z,4.37
2018-07-06T22:14:28.415Z,7.00
2018-07-06T22:16:57.804Z,4.00
2018-07-06T22:19:27.108Z,12.63
2018-07-06T22:21:56.996Z,6.77
2018-07-06T22:24:26.605Z,12.43
2018-07-06T22:26:55.948Z,9.73
2018-07-06T22:29:25.936Z,12.90
2018-07-06T22:31:55.249Z,5.37
2018-07-06T22:34:24.379Z,6.37
2018-07-06T22:36:53.673Z,11.83
2018-07-06T22:39:22.691Z,10.70
2018-07-06T22:41:51.380Z,5.47
2018-07-06T22:44:20.448Z,4.73
2018-07-06T22:46:49.410Z,7.70
2018-07-06T22:49:18.658Z,2.83
2018-07-06T22:51:47.775Z,16.60
2018-07-06T22:54:17.430Z,8.07
2018-07-06T22:56:46.617Z,7.40
2018-07-06T22:59:16.387Z,17.57
2018-07-06T23:01:45.370Z,9.20
2018-07-06T23:04:14.409Z,3.53
2018-07-06T23:06:43.597Z,6.23
2018-07-06T23:09:12.696Z,8.00
2018-07-06T23:11:41.739Z,3.80
2018-07-06T23:14:11.102Z,9.90
2018-07-06T23:16:40.444Z,6.73
2018-07-06T23:19:10.282Z,4.83
2018-07-06T23:21:39.721Z,6.17
2018-07-06T23:24:08.976Z,10.67
2018-07-06T23:26:38.416Z,4.07
2018-07-06T23:29:07.896Z,8.27
2018-07-06T23:31:37.543Z,5.47
2018-07-06T23:34:07.159Z,6.17
2018-07-06T23:36:37.131Z,17.00
2018-07-06T23:39:06.904Z,14.63
2018-07-06T23:41:36.307Z,12.83
2018-07-06T23:44:06.563Z,8.80
2018-07-06T23:46:35.858Z,7.17
2018-07-06T23:49:05.778Z,6.87
2018-07-06T23:51:34.856Z,5.90
2018-07-06T23:54:07.162Z,13.37
2018-07-06T23:56:36.654Z,5.80
2018-07-06T23:59:06.356Z,4.70
